Time;durP1;ratioP1;P1;durP2;ratioP2;P2;SDS_P1;SDS_P2;PMS_P1;PMS_P2;Temp;Humidity;BMP_temperature;BMP_pressure;BME280_temperature;BME280_humidity;BME280_pressure;Samples;Min_cycle;Max_cycle;Signal;HPM_P1;HPM_P2
2021/03/20 00:00:24;;;;;;;8.05;4.82;;;;;;;;;;4979466;28;20179;-77
2021/03/20 00:02:52;;;;;;;5.47;4.57;;;;;;;;;;4978852;28;20185;-75
2021/03/20 00:05:19;;;;;;;7.10;4.63;;;;;;;;;;4978296;28;20225;-76
2021/03/20 00:07:46;;;;;;;7.65;5.10;;;;;;;;;;4960920;28;20220;-77
2021/03/20 00:10:14;;;;;;;5.65;4.90;;;;;;;;;;4978404;28;20182;-76
2021/03/20 00:12:41;;;;;;;9.27;4.93;;;;;;;;;;4978771;28;20229;-76
2021/03/20 00:15:12;;;;;;;8.10;4.65;;;;;;;;;;4977027;28;20252;-77
2021/03/20 00:17:38;;;;;;;7.85;4.88;;;;;;;;;;4978497;28;20179;-77
2021/03/20 00:20:06;;;;;;;4.38;3.97;;;;;;;;;;4981182;28;20234;-77
2021/03/20 00:22:32;;;;;;;7.28;5.75;;;;;;;;;;4977945;28;20182;-75
2021/03/20 00:24:58;;;;;;;5.10;4.60;;;;;;;;;;4976744;28;20185;-76
2021/03/20 00:27:24;;;;;;;10.37;5.50;;;;;;;;;;4977385;28;20446;-77
2021/03/20 00:29:50;;;;;;;7.22;5.60;;;;;;;;;;4977734;28;20434;-76
2021/03/20 00:34:47;;;;;;;5.72;5.13;;;;;;;;;;4977566;28;20693;-76
2021/03/20 00:37:14;;;;;;;8.32;5.28;;;;;;;;;;4978839;28;20194;-76
2021/03/20 00:39:43;;;;;;;6.90;6.10;;;;;;;;;;4980110;28;20242;-76
2021/03/20 00:42:09;;;;;;;9.30;5.85;;;;;;;;;;4979277;28;20312;-76
2021/03/20 00:44:36;;;;;;;7.57;6.10;;;;;;;;;;4979332;28;20265;-77
2021/03/20 00:47:02;;;;;;;9.68;5.45;;;;;;;;;;4980079;28;20261;-77
2021/03/20 00:49:28;;;;;;;7.05;6.00;;;;;;;;;;4986615;23;20185;-78
2021/03/20 00:51:54;;;;;;;10.07;5.90;;;;;;;;;;4965006;28;20194;-78
2021/03/20 00:54:20;;;;;;;8.50;5.72;;;;;;;;;;4972180;28;20192;-76
2021/03/20 00:56:51;;;;;;;10.13;6.10;;;;;;;;;;4965048;28;20199;-77
2021/03/20 00:59:17;;;;;;;8.13;5.65;;;;;;;;;;4961818;28;20216;-76
2021/03/20 01:01:43;;;;;;;7.72;6.57;;;;;;;;;;4970292;28;20178;-79
2021/03/20 01:04:09;;;;;;;6.97;5.32;;;;;;;;;;4964640;28;20196;-76
2021/03/20 01:06:35;;;;;;;7.85;6.15;;;;;;;;;;4967498;28;20540;-77
2021/03/20 01:09:01;;;;;;;5.63;4.90;;;;;;;;;;4978594;28;20221;-76
2021/03/20 01:11:29;;;;;;;9.50;6.38;;;;;;;;;;4981713;28;20486;-78
2021/03/20 01:13:55;;;;;;;7.60;5.10;;;;;;;;;;4966509;28;20183;-75
2021/03/20 01:16:21;;;;;;;7.32;5.70;;;;;;;;;;4953684;28;20277;-76
2021/03/20 01:18:48;;;;;;;11.18;5.53;;;;;;;;;;4963493;28;20233;-76
2021/03/20 01:21:14;;;;;;;6.63;4.90;;;;;;;;;;4965830;28;20178;-76
2021/03/20 01:23:40;;;;;;;9.07;5.63;;;;;;;;;;4976207;28;20210;-77
2021/03/20 01:26:06;;;;;;;7.00;5.85;;;;;;;;;;4970358;28;20568;-77
2021/03/20 01:28:35;;;;;;;6.70;5.70;;;;;;;;;;4969769;28;20200;-77
2021/03/20 01:31:02;;;;;;;7.18;5.30;;;;;;;;;;4966213;28;20190;-77
2021/03/20 01:33:29;;;;;;;6.25;4.72;;;;;;;;;;4982422;28;20205;-75
2021/03/20 01:35:55;;;;;;;7.05;5.20;;;;;;;;;;4969114;28;20600;-76
2021/03/20 01:38:23;;;;;;;5.18;4.68;;;;;;;;;;4969432;28;20244;-77
2021/03/20 01:41:09;;;;;;;6.70;4.60;;;;;;;;;;4979842;28;20197;-79
2021/03/20 01:43:35;;;;;;;6.18;4.22;;;;;;;;;;4959851;28;20274;-77
2021/03/20 01:46:20;;;;;;;6.57;5.20;;;;;;;;;;4972010;28;20218;-78
2021/03/20 01:48:46;;;;;;;6.28;4.80;;;;;;;;;;4978175;28;20183;-77
2021/03/20 01:51:13;;;;;;;6.97;4.80;;;;;;;;;;4961030;28;20227;-76
2021/03/20 01:53:43;;;;;;;7.93;5.03;;;;;;;;;;4956799;28;20195;-79
2021/03/20 01:56:12;;;;;;;6.65;5.15;;;;;;;;;;4974209;28;20178;-79
2021/03/20 01:58:40;;;;;;;5.30;4.80;;;;;;;;;;4938469;28;20235;-78
2021/03/20 02:01:12;;;;;;;9.45;5.60;;;;;;;;;;4961881;28;20224;-76
2021/03/20 02:03:39;;;;;;;8.23;4.78;;;;;;;;;;4956347;28;20183;-77
2021/03/20 02:06:06;;;;;;;9.05;5.70;;;;;;;;;;4979261;28;20201;-77
2021/03/20 02:08:33;;;;;;;7.95;5.20;;;;;;;;;;4973980;28;20187;-75
2021/03/20 02:11:15;;;;;;;6.47;5.53;;;;;;;;;;4971383;28;20234;-75
2021/03/20 02:13:46;;;;;;;7.18;5.43;;;;;;;;;;4979381;28;20189;-77
2021/03/20 02:16:18;;;;;;;9.68;5.43;;;;;;;;;;4965271;28;20189;-80
2021/03/20 02:18:46;;;;;;;7.45;5.60;;;;;;;;;;4974234;28;20228;-75
2021/03/20 02:21:18;;;;;;;7.35;5.43;;;;;;;;;;4960274;28;20193;-76
2021/03/20 02:23:50;;;;;;;8.20;5.40;;;;;;;;;;4956927;28;20643;-76
2021/03/20 02:26:35;;;;;;;5.80;4.93;;;;;;;;;;4972929;28;20207;-76
2021/03/20 02:29:20;;;;;;;5.97;5.28;;;;;;;;;;4971202;28;20194;-77
2021/03/20 02:32:05;;;;;;;10.80;6.13;;;;;;;;;;4977478;28;20265;-76
2021/03/20 02:34:40;;;;;;;6.05;5.45;;;;;;;;;;4975621;28;20190;-78
2021/03/20 02:37:10;;;;;;;7.15;5.18;;;;;;;;;;4969388;28;20183;-77
2021/03/20 02:39:49;;;;;;;5.20;4.72;;;;;;;;;;4974232;28;20210;-78
2021/03/20 02:42:15;;;;;;;5.75;4.70;;;;;;;;;;4964907;28;20190;-77
2021/03/20 02:44:45;;;;;;;7.73;4.50;;;;;;;;;;4980566;28;20236;-76
2021/03/20 02:47:13;;;;;;;5.72;4.65;;;;;;;;;;4937549;28;20458;-76
2021/03/20 02:49:39;;;;;;;5.90;5.28;;;;;;;;;;4978988;28;20222;-77
2021/03/20 02:52:07;;;;;;;6.63;5.10;;;;;;;;;;4943665;28;20214;-77
2021/03/20 02:54:39;;;;;;;5.63;4.85;;;;;;;;;;4967632;28;20463;-75
2021/03/20 02:57:24;;;;;;;9.18;5.25;;;;;;;;;;4974915;28;20226;-76
2021/03/20 02:59:59;;;;;;;8.70;5.40;;;;;;;;;;4975582;28;20219;-76
2021/03/20 03:02:27;;;;;;;8.40;5.40;;;;;;;;;;4960479;28;20580;-75
2021/03/20 03:04:53;;;;;;;7.32;5.45;;;;;;;;;;4961976;28;20180;-77
2021/03/20 03:07:21;;;;;;;7.57;5.30;;;;;;;;;;4961284;28;20661;-78
2021/03/20 03:09:52;;;;;;;8.88;5.45;;;;;;;;;;4968937;28;20524;-76
2021/03/20 03:12:29;;;;;;;8.20;5.70;;;;;;;;;;4963742;28;20189;-75
2021/03/20 03:15:02;;;;;;;8.07;6.40;;;;;;;;;;4970489;28;20182;-77
2021/03/20 03:17:28;;;;;;;8.23;6.45;;;;;;;;;;4965837;28;20188;-77
2021/03/20 03:20:13;;;;;;;6.93;5.82;;;;;;;;;;4962287;28;20215;-76
2021/03/20 03:22:44;;;;;;;10.30;6.30;;;;;;;;;;4965993;28;20191;-78
2021/03/20 03:25:13;;;;;;;7.07;6.07;;;;;;;;;;4975308;28;20258;-77
2021/03/20 03:27:41;;;;;;;6.72;5.82;;;;;;;;;;4964616;28;20219;-78
2021/03/20 03:30:10;;;;;;;6.65;5.60;;;;;;;;;;4959626;29;20309;-78
2021/03/20 03:32:39;;;;;;;7.88;6.65;;;;;;;;;;4961148;28;20274;-77
2021/03/20 03:35:09;;;;;;;7.38;6.45;;;;;;;;;;4961990;28;20176;-77
2021/03/20 03:37:44;;;;;;;6.18;5.57;;;;;;;;;;4960484;28;20190;-77
2021/03/20 03:40:16;;;;;;;9.45;6.72;;;;;;;;;;4960703;28;20539;-77
2021/03/20 03:42:42;;;;;;;9.25;6.47;;;;;;;;;;4960409;28;20252;-77
2021/03/20 03:45:09;;;;;;;9.50;6.13;;;;;;;;;;4972712;28;20674;-76
2021/03/20 03:47:37;;;;;;;9.02;6.45;;;;;;;;;;4963574;28;20175;-77
2021/03/20 03:50:09;;;;;;;7.50;5.80;;;;;;;;;;4970134;28;20223;-75
2021/03/20 03:52:35;;;;;;;7.40;6.05;;;;;;;;;;4967026;28;20266;-76
2021/03/20 03:55:02;;;;;;;10.02;5.55;;;;;;;;;;4978968;28;20214;-80
2021/03/20 03:57:46;;;;;;;7.82;5.80;;;;;;;;;;4965403;28;20222;-76
2021/03/20 04:00:33;;;;;;;11.38;6.93;;;;;;;;;;4959504;28;20190;-77
2021/03/20 04:03:14;;;;;;;10.50;7.03;;;;;;;;;;4887635;29;20251;-76
2021/03/20 04:05:58;;;;;;;13.40;6.35;;;;;;;;;;4882488;29;20205;-76
2021/03/20 04:08:43;;;;;;;6.18;5.60;;;;;;;;;;4893853;29;20292;-79
2021/03/20 04:11:17;;;;;;;8.60;6.30;;;;;;;;;;4892588;29;20237;-78
2021/03/20 04:13:49;;;;;;;10.48;6.45;;;;;;;;;;4890720;29;20202;-77
2021/03/20 04:16:17;;;;;;;6.45;5.32;;;;;;;;;;4900267;29;20185;-83
2021/03/20 04:19:13;;;;;;;6.63;5.78;;;;;;;;;;4885255;29;20233;-76
2021/03/20 04:21:41;;;;;;;8.98;6.60;;;;;;;;;;4891589;29;20209;-77
2021/03/20 04:24:10;;;;;;;7.43;5.45;;;;;;;;;;4900255;29;20631;-77
2021/03/20 04:26:43;;;;;;;8.45;6.97;;;;;;;;;;4898279;29;20205;-76
2021/03/20 04:29:12;;;;;;;8.73;6.15;;;;;;;;;;4886814;29;20197;-81
2021/03/20 04:31:42;;;;;;;9.23;6.95;;;;;;;;;;4900699;29;20244;-77
2021/03/20 04:34:30;;;;;;;9.10;5.95;;;;;;;;;;4891522;29;20230;-78
2021/03/20 04:37:13;;;;;;;7.45;5.45;;;;;;;;;;4892612;29;20275;-75
2021/03/20 04:39:42;;;;;;;9.80;5.75;;;;;;;;;;4913693;29;20231;-75
2021/03/20 04:42:08;;;;;;;7.00;6.13;;;;;;;;;;4969684;28;20259;-75
2021/03/20 04:44:35;;;;;;;7.28;5.57;;;;;;;;;;4967706;28;20214;-75
2021/03/20 04:47:04;;;;;;;6.63;6.03;;;;;;;;;;4963241;28;20201;-80
2021/03/20 04:49:33;;;;;;;6.78;5.20;;;;;;;;;;4958337;28;20193;-78
2021/03/20 04:52:05;;;;;;;9.15;6.72;;;;;;;;;;4966914;28;20207;-76
2021/03/20 04:54:34;;;;;;;7.38;5.55;;;;;;;;;;4970798;28;20190;-77
2021/03/20 04:57:09;;;;;;;6.15;4.80;;;;;;;;;;4972461;28;20253;-77
2021/03/20 04:59:35;;;;;;;7.35;5.38;;;;;;;;;;4981868;28;20242;-76
2021/03/20 05:02:04;;;;;;;6.63;5.47;;;;;;;;;;4963027;28;20509;-78
2021/03/20 05:04:33;;;;;;;9.85;5.90;;;;;;;;;;4964679;28;20446;-80
2021/03/20 05:07:01;;;;;;;10.65;5.32;;;;;;;;;;4960435;28;20190;-77
2021/03/20 05:09:28;;;;;;;10.10;6.15;;;;;;;;;;4978573;28;20186;-80
2021/03/20 05:12:00;;;;;;;5.88;5.28;;;;;;;;;;4966859;28;20179;-75
2021/03/20 05:14:29;;;;;;;5.47;4.93;;;;;;;;;;4976335;28;20180;-76
2021/03/20 05:16:57;;;;;;;5.50;4.95;;;;;;;;;;4964278;28;20191;-88
2021/03/20 05:19:24;;;;;;;6.90;5.30;;;;;;;;;;4977255;28;20214;-76
2021/03/20 05:21:52;;;;;;;6.03;4.82;;;;;;;;;;4966964;28;20275;-77
2021/03/20 05:24:22;;;;;;;6.38;5.57;;;;;;;;;;4976456;28;20170;-79
2021/03/20 05:26:48;;;;;;;7.18;5.53;;;;;;;;;;4970985;28;20590;-78
2021/03/20 05:29:14;;;;;;;6.57;5.40;;;;;;;;;;4961467;28;20197;-76
2021/03/20 05:31:40;;;;;;;5.72;5.07;;;;;;;;;;4960030;28;20278;-75
2021/03/20 05:34:14;;;;;;;6.10;5.15;;;;;;;;;;4961128;29;20254;-78
2021/03/20 05:36:40;;;;;;;7.57;6.25;;;;;;;;;;4946612;29;20186;-83
2021/03/20 05:39:07;;;;;;;7.78;5.55;;;;;;;;;;4967825;29;20215;-81
2021/03/20 05:41:48;;;;;;;7.03;5.00;;;;;;;;;;4960588;29;20186;-77
2021/03/20 05:44:40;;;;;;;7.55;6.18;;;;;;;;;;4958671;29;20190;-75
2021/03/20 05:47:16;;;;;;;7.05;5.68;;;;;;;;;;4955914;29;20194;-76
2021/03/20 05:50:00;;;;;;;6.97;5.40;;;;;;;;;;4958268;29;20233;-76
2021/03/20 05:52:45;;;;;;;6.55;5.63;;;;;;;;;;4957788;29;20286;-75
2021/03/20 05:55:17;;;;;;;8.02;5.68;;;;;;;;;;4958092;29;20209;-78
2021/03/20 06:00:47;;;;;;;6.95;5.10;;;;;;;;;;4959616;29;20193;-76
2021/03/20 06:03:19;;;;;;;5.93;4.85;;;;;;;;;;4957326;29;20621;-78
2021/03/20 06:05:59;;;;;;;5.93;4.65;;;;;;;;;;4960760;29;20622;-77
2021/03/20 06:08:38;;;;;;;6.80;5.22;;;;;;;;;;4942307;29;20186;-77
2021/03/20 06:11:04;;;;;;;6.05;5.15;;;;;;;;;;4959804;29;20176;-77
2021/03/20 06:16:38;;;;;;;6.28;5.30;;;;;;;;;;4960433;29;20265;-77
2021/03/20 06:19:22;;;;;;;5.45;4.95;;;;;;;;;;4960515;29;20230;-76
2021/03/20 06:21:59;;;;;;;8.63;6.72;;;;;;;;;;4959111;29;20182;-76
2021/03/20 06:24:50;;;;;;;5.95;5.25;;;;;;;;;;4959895;29;20174;-75
2021/03/20 06:33:30;;;;;;;7.35;5.60;;;;;;;;;;4960125;29;20181;-79
2021/03/20 06:36:02;;;;;;;7.65;4.85;;;;;;;;;;4948623;29;20197;-77
2021/03/20 06:38:48;;;;;;;8.98;5.97;;;;;;;;;;4958069;29;20266;-77
2021/03/20 06:41:20;;;;;;;6.18;5.38;;;;;;;;;;4958538;29;20172;-78
2021/03/20 06:44:10;;;;;;;5.00;4.50;;;;;;;;;;4958638;29;20169;-75
2021/03/20 06:46:38;;;;;;;5.03;4.50;;;;;;;;;;4951606;28;20607;-76
2021/03/20 06:49:19;;;;;;;4.45;4.05;;;;;;;;;;4960972;29;20183;-75
2021/03/20 06:51:45;;;;;;;4.80;4.20;;;;;;;;;;4968047;29;20192;-79
2021/03/20 06:54:12;;;;;;;5.65;4.45;;;;;;;;;;4965274;29;20171;-82
2021/03/20 06:56:39;;;;;;;6.15;4.88;;;;;;;;;;4961656;29;20175;-79
2021/03/20 06:59:12;;;;;;;6.45;4.93;;;;;;;;;;4965107;29;20199;-77
2021/03/20 07:01:38;;;;;;;4.97;4.20;;;;;;;;;;4959684;29;20585;-77
2021/03/20 07:04:10;;;;;;;4.50;4.10;;;;;;;;;;4965147;29;20194;-75
2021/03/20 07:06:36;;;;;;;5.45;3.58;;;;;;;;;;4963899;29;20175;-84
2021/03/20 07:09:04;;;;;;;4.23;3.80;;;;;;;;;;4960929;29;20183;-79
2021/03/20 07:11:37;;;;;;;5.10;4.28;;;;;;;;;;4960139;29;20416;-76
2021/03/20 07:14:05;;;;;;;7.03;3.95;;;;;;;;;;4961624;29;20650;-77
2021/03/20 07:16:31;;;;;;;4.82;3.80;;;;;;;;;;4962109;29;20172;-79
2021/03/20 07:19:04;;;;;;;5.75;4.75;;;;;;;;;;4955627;29;20210;-82
2021/03/20 07:21:36;;;;;;;4.75;3.92;;;;;;;;;;4954764;29;20183;-78
2021/03/20 07:24:03;;;;;;;5.97;3.90;;;;;;;;;;4955380;29;20627;-79
2021/03/20 07:26:31;;;;;;;5.30;3.25;;;;;;;;;;4959548;29;20168;-77
2021/03/20 07:29:00;;;;;;;3.50;3.20;;;;;;;;;;4960347;29;20584;-77
2021/03/20 07:31:29;;;;;;;7.68;3.47;;;;;;;;;;4959342;29;20164;-76
2021/03/20 07:33:56;;;;;;;2.63;2.42;;;;;;;;;;4957361;29;20207;-86
2021/03/20 07:36:28;;;;;;;4.43;3.65;;;;;;;;;;4958051;29;20593;-75
2021/03/20 07:39:33;;;;;;;4.32;2.75;;;;;;;;;;4959373;29;20231;-76
2021/03/20 07:42:02;;;;;;;4.55;3.30;;;;;;;;;;4882087;29;20194;-81
2021/03/20 07:44:30;;;;;;;3.15;2.55;;;;;;;;;;4880311;29;20175;-86
2021/03/20 07:46:56;;;;;;;7.53;3.08;;;;;;;;;;4878966;29;20561;-84
2021/03/20 07:49:25;;;;;;;5.07;3.25;;;;;;;;;;4877439;29;20242;-79
2021/03/20 07:52:05;;;;;;;8.90;2.95;;;;;;;;;;4863618;29;20566;-84
2021/03/20 07:54:35;;;;;;;6.40;3.85;;;;;;;;;;4861125;29;20198;-87
2021/03/20 07:57:11;;;;;;;3.40;3.10;;;;;;;;;;4863803;29;20178;-85
2021/03/20 07:59:47;;;;;;;3.65;3.33;;;;;;;;;;4862091;29;20237;-78
2021/03/20 08:02:35;;;;;;;3.38;3.00;;;;;;;;;;4851301;29;20198;-76
2021/03/20 08:05:02;;;;;;;9.38;3.88;;;;;;;;;;4851310;29;20207;-87
2021/03/20 08:07:28;;;;;;;3.42;3.10;;;;;;;;;;4859910;29;20264;-78
2021/03/20 08:10:13;;;;;;;4.07;3.42;;;;;;;;;;4845894;29;20214;-76
2021/03/20 08:12:56;;;;;;;4.05;3.25;;;;;;;;;;4897640;29;20199;-76
2021/03/20 08:15:37;;;;;;;3.85;3.30;;;;;;;;;;4937304;29;20176;-79
2021/03/20 08:18:12;;;;;;;7.35;3.30;;;;;;;;;;4937622;29;20169;-78
2021/03/20 08:20:42;;;;;;;5.03;2.92;;;;;;;;;;4936742;29;20259;-78
2021/03/20 08:23:11;;;;;;;5.97;3.75;;;;;;;;;;4936755;29;20281;-76
2021/03/20 08:25:40;;;;;;;4.53;3.53;;;;;;;;;;4938547;29;20177;-83
2021/03/20 08:31:18;;;;;;;3.55;3.25;;;;;;;;;;4936224;29;20271;-81
2021/03/20 08:33:47;;;;;;;5.97;3.30;;;;;;;;;;4936662;29;20288;-77
2021/03/20 08:36:16;;;;;;;2.90;2.67;;;;;;;;;;4939052;29;20615;-77
2021/03/20 08:38:54;;;;;;;3.50;2.55;;;;;;;;;;4943355;29;20228;-78
2021/03/20 08:41:39;;;;;;;3.70;2.53;;;;;;;;;;4944155;29;20632;-76
2021/03/20 08:47:23;;;;;;;2.55;2.35;;;;;;;;;;4937621;29;20696;-87
2021/03/20 08:49:58;;;;;;;2.90;2.38;;;;;;;;;;4939977;29;20230;-81
2021/03/20 08:52:39;;;;;;;2.53;2.33;;;;;;;;;;4954265;29;20174;-79
2021/03/20 08:55:24;;;;;;;4.18;2.80;;;;;;;;;;4956803;29;20179;-80
2021/03/20 08:58:10;;;;;;;2.65;2.45;;;;;;;;;;4958163;29;20178;-81
2021/03/20 09:03:43;;;;;;;2.88;2.40;;;;;;;;;;4961035;29;20189;-78
2021/03/20 09:06:25;;;;;;;2.97;2.53;;;;;;;;;;4963250;29;20336;-80
2021/03/20 09:08:52;;;;;;;2.10;1.90;;;;;;;;;;4961006;29;20171;-80
2021/03/20 09:11:22;;;;;;;3.03;2.42;;;;;;;;;;4963104;28;20166;-82
2021/03/20 09:13:50;;;;;;;5.30;2.10;;;;;;;;;;4965666;29;20213;-78
2021/03/20 09:16:35;;;;;;;3.25;2.30;;;;;;;;;;4947329;29;20189;-86
2021/03/20 09:19:03;;;;;;;2.22;1.55;;;;;;;;;;4960671;29;20700;-82
2021/03/20 09:21:30;;;;;;;4.03;2.20;;;;;;;;;;4960877;29;20558;-82
2021/03/20 09:23:56;;;;;;;2.73;2.47;;;;;;;;;;4961722;29;20180;-82
2021/03/20 09:26:37;;;;;;;2.00;1.88;;;;;;;;;;4961102;29;20474;-81
2021/03/20 09:29:11;;;;;;;2.77;2.30;;;;;;;;;;4957641;29;20501;-79
2021/03/20 09:31:39;;;;;;;2.80;2.47;;;;;;;;;;4957891;29;20410;-87
2021/03/20 09:34:20;;;;;;;2.67;2.10;;;;;;;;;;4958556;29;20430;-83
2021/03/20 09:36:49;;;;;;;4.50;2.20;;;;;;;;;;4959666;29;20903;-79
2021/03/20 09:39:34;;;;;;;2.40;2.20;;;;;;;;;;4959719;29;20516;-80
2021/03/20 09:41:59;;;;;;;2.00;1.63;;;;;;;;;;4958268;29;20428;-79
2021/03/20 09:44:26;;;;;;;4.10;2.30;;;;;;;;;;4958303;29;20914;-79
2021/03/20 09:46:54;;;;;;;3.40;2.10;;;;;;;;;;4958126;29;20438;-80
2021/03/20 09:49:22;;;;;;;3.33;2.00;;;;;;;;;;4957704;29;20419;-80
2021/03/20 09:51:56;;;;;;;2.40;2.20;;;;;;;;;;4959501;29;20483;-83
2021/03/20 09:54:25;;;;;;;2.67;2.40;;;;;;;;;;4958356;29;20466;-77
2021/03/20 09:56:51;;;;;;;1.87;1.77;;;;;;;;;;4957431;29;20420;-78
2021/03/20 09:59:38;;;;;;;5.77;2.40;;;;;;;;;;4954072;29;20989;-84
2021/03/20 10:02:10;;;;;;;2.47;1.93;;;;;;;;;;4942548;29;20432;-77
2021/03/20 10:04:37;;;;;;;2.40;2.20;;;;;;;;;;4955675;29;20424;-85
2021/03/20 10:07:12;;;;;;;3.13;2.93;;;;;;;;;;4955856;29;20411;-82
2021/03/20 10:10:05;;;;;;;2.90;2.70;;;;;;;;;;4957005;29;20415;-79
2021/03/20 10:12:43;;;;;;;2.50;2.30;;;;;;;;;;4927114;29;20419;-79
2021/03/20 10:15:15;;;;;;;3.20;2.50;;;;;;;;;;4955979;29;20945;-79
2021/03/20 10:17:58;;;;;;;1.90;1.80;;;;;;;;;;4956796;29;20813;-77
2021/03/20 10:20:35;;;;;;;2.40;1.80;;;;;;;;;;4957466;29;20431;-78
2021/03/20 10:23:03;;;;;;;2.67;2.20;;;;;;;;;;4959529;28;20510;-86
2021/03/20 10:25:31;;;;;;;2.83;2.50;;;;;;;;;;4962264;29;20427;-80
2021/03/20 10:28:01;;;;;;;3.20;2.60;;;;;;;;;;4963325;29;20426;-77
2021/03/20 10:30:32;;;;;;;2.70;2.50;;;;;;;;;;4963960;29;20438;-77
2021/03/20 10:33:13;;;;;;;3.00;2.23;;;;;;;;;;4959397;29;20548;-81
2021/03/20 10:35:40;;;;;;;2.40;2.20;;;;;;;;;;4956677;29;20423;-81
2021/03/20 10:38:24;;;;;;;2.50;2.10;;;;;;;;;;4956475;29;20427;-79
2021/03/20 10:40:57;;;;;;;1.83;1.73;;;;;;;;;;4958028;29;20435;-79
2021/03/20 10:43:23;;;;;;;2.90;2.30;;;;;;;;;;4956411;29;20430;-77
2021/03/20 10:45:49;;;;;;;2.67;1.97;;;;;;;;;;4956690;29;20515;-81
2021/03/20 10:48:28;;;;;;;3.67;2.23;;;;;;;;;;4956901;29;20419;-79
2021/03/20 10:51:02;;;;;;;2.43;2.23;;;;;;;;;;4958672;29;20558;-77
2021/03/20 10:53:35;;;;;;;2.80;2.10;;;;;;;;;;4958107;29;20443;-78
2021/03/20 10:56:01;;;;;;;2.30;2.10;;;;;;;;;;4956814;29;20518;-80
2021/03/20 10:58:36;;;;;;;3.57;2.53;;;;;;;;;;4955882;29;20463;-78
2021/03/20 11:01:03;;;;;;;2.67;2.47;;;;;;;;;;4956571;29;20822;-81
2021/03/20 11:03:34;;;;;;;1.93;1.83;;;;;;;;;;4956196;29;20578;-83
2021/03/20 11:06:09;;;;;;;2.80;1.83;;;;;;;;;;4955994;29;20420;-79
2021/03/20 11:08:36;;;;;;;2.03;1.90;;;;;;;;;;4955849;29;20766;-78
2021/03/20 11:11:35;;;;;;;2.53;2.10;;;;;;;;;;4955958;29;20448;-78
2021/03/20 11:14:06;;;;;;;1.60;1.50;;;;;;;;;;4914124;29;20491;-81
2021/03/20 11:16:33;;;;;;;2.37;2.17;;;;;;;;;;4956124;29;20419;-83
2021/03/20 11:19:11;;;;;;;2.50;2.30;;;;;;;;;;4956566;29;20474;-81
2021/03/20 11:21:45;;;;;;;3.27;1.73;;;;;;;;;;4957048;29;20806;-79
2021/03/20 11:24:34;;;;;;;2.83;1.90;;;;;;;;;;4957966;29;20624;-80
2021/03/20 11:27:19;;;;;;;2.17;2.03;;;;;;;;;;4956256;29;20424;-79
2021/03/20 11:32:49;;;;;;;2.33;2.13;;;;;;;;;;4955439;28;20506;-78
2021/03/20 11:35:21;;;;;;;2.23;2.10;;;;;;;;;;4955243;29;20820;-79
2021/03/20 11:37:47;;;;;;;1.70;1.60;;;;;;;;;;4955612;29;20415;-79
2021/03/20 11:40:30;;;;;;;5.50;1.70;;;;;;;;;;4955483;29;20474;-79
2021/03/20 11:43:02;;;;;;;3.30;1.63;;;;;;;;;;4955252;29;20724;-85
2021/03/20 11:48:36;;;;;;;3.00;2.37;;;;;;;;;;4955185;29;20422;-85
2021/03/20 11:51:04;;;;;;;2.07;1.87;;;;;;;;;;4954691;29;20957;-84
2021/03/20 11:53:42;;;;;;;3.83;2.47;;;;;;;;;;4955054;29;20775;-85
2021/03/20 11:56:18;;;;;;;1.93;1.70;;;;;;;;;;4955260;29;20439;-86
2021/03/20 11:58:55;;;;;;;2.43;1.90;;;;;;;;;;4955419;29;20447;-87
2021/03/20 12:04:26;;;;;;;2.00;1.80;;;;;;;;;;4955133;29;20981;-85
2021/03/20 12:06:53;;;;;;;2.30;2.10;;;;;;;;;;4942839;29;20434;-86
2021/03/20 12:09:21;;;;;;;2.40;2.20;;;;;;;;;;4955240;29;20419;-86
2021/03/20 12:11:47;;;;;;;2.30;2.10;;;;;;;;;;4954789;29;20424;-87
2021/03/20 12:14:32;;;;;;;3.13;2.60;;;;;;;;;;4955026;29;20442;-83
2021/03/20 12:20:23;;;;;;;2.20;2.10;;;;;;;;;;4968559;29;20470;-84
2021/03/20 12:22:50;;;;;;;3.30;3.00;;;;;;;;;;4961870;29;20426;-85
2021/03/20 12:25:23;;;;;;;2.83;2.60;;;;;;;;;;4956155;29;20825;-84
2021/03/20 12:27:50;;;;;;;2.50;2.30;;;;;;;;;;4955287;29;20778;-84
2021/03/20 12:30:26;;;;;;;2.70;2.50;;;;;;;;;;4955215;29;20516;-83
2021/03/20 12:33:12;;;;;;;2.63;2.40;;;;;;;;;;4954701;29;20426;-81
2021/03/20 12:35:43;;;;;;;2.57;2.37;;;;;;;;;;4954662;29;20423;-86
2021/03/20 12:38:12;;;;;;;2.50;2.30;;;;;;;;;;4952607;29;20407;-84
2021/03/20 12:40:39;;;;;;;2.60;2.40;;;;;;;;;;4936468;29;20931;-85
2021/03/20 12:43:06;;;;;;;2.27;2.07;;;;;;;;;;4954045;29;20404;-84
2021/03/20 12:45:34;;;;;;;2.40;2.20;;;;;;;;;;4937912;29;20431;-89
2021/03/20 12:48:00;;;;;;;3.37;2.17;;;;;;;;;;4957656;29;20427;-85
2021/03/20 12:50:26;;;;;;;5.53;2.50;;;;;;;;;;4956965;29;20427;-81
2021/03/20 12:52:52;;;;;;;2.10;2.00;;;;;;;;;;4957207;29;20427;-83
2021/03/20 12:55:18;;;;;;;2.40;2.20;;;;;;;;;;4957695;29;20913;-83
2021/03/20 12:57:44;;;;;;;4.17;2.10;;;;;;;;;;4958322;29;20871;-81
2021/03/20 13:00:16;;;;;;;2.57;2.37;;;;;;;;;;4958173;29;20473;-82
2021/03/20 13:02:42;;;;;;;2.53;2.30;;;;;;;;;;4958473;29;20407;-82
2021/03/20 13:05:08;;;;;;;3.03;2.83;;;;;;;;;;4958028;29;20431;-83
2021/03/20 13:07:34;;;;;;;2.90;2.60;;;;;;;;;;4958345;29;20422;-84
2021/03/20 13:10:00;;;;;;;4.40;2.83;;;;;;;;;;4957707;29;20506;-82
2021/03/20 13:12:26;;;;;;;2.60;2.20;;;;;;;;;;4957834;29;20412;-84
2021/03/20 13:14:52;;;;;;;3.13;2.90;;;;;;;;;;4957774;29;20426;-82
2021/03/20 13:20:26;;;;;;;4.70;2.93;;;;;;;;;;4957595;29;20486;-83
2021/03/20 13:22:53;;;;;;;3.07;2.70;;;;;;;;;;4957419;29;20510;-82
2021/03/20 13:25:31;;;;;;;4.33;3.10;;;;;;;;;;4957756;29;20431;-82
2021/03/20 13:27:58;;;;;;;3.27;3.00;;;;;;;;;;4957667;29;20427;-82
2021/03/20 13:30:25;;;;;;;3.60;3.30;;;;;;;;;;4957727;29;20412;-82
2021/03/20 13:32:53;;;;;;;3.70;2.80;;;;;;;;;;4957273;29;20420;-85
2021/03/20 13:35:19;;;;;;;4.83;3.37;;;;;;;;;;4956318;29;20430;-84
2021/03/20 13:37:45;;;;;;;4.07;2.97;;;;;;;;;;4956898;29;20423;-84
2021/03/20 13:40:12;;;;;;;5.37;2.60;;;;;;;;;;4939399;29;20487;-85
2021/03/20 13:42:38;;;;;;;4.40;3.30;;;;;;;;;;4957124;29;20424;-85
2021/03/20 13:50:56;;;;;;;2.73;2.53;;;;;;;;;;4956366;28;20481;-83
2021/03/20 13:53:24;;;;;;;3.93;3.63;;;;;;;;;;4957540;29;20769;-82
2021/03/20 13:55:52;;;;;;;3.10;2.90;;;;;;;;;;4958353;28;20454;-85
2021/03/20 13:58:19;;;;;;;4.33;2.73;;;;;;;;;;4956286;29;20777;-84
2021/03/20 14:00:45;;;;;;;3.07;2.80;;;;;;;;;;4957518;29;20416;-83
2021/03/20 14:03:11;;;;;;;3.50;2.70;;;;;;;;;;4956482;29;20459;-83
2021/03/20 14:05:37;;;;;;;4.60;3.10;;;;;;;;;;4956779;29;20419;-83
2021/03/20 14:08:04;;;;;;;3.60;3.07;;;;;;;;;;4947451;29;20458;-83
2021/03/20 14:10:34;;;;;;;2.90;2.70;;;;;;;;;;4970596;29;20435;-83
2021/03/20 14:13:00;;;;;;;3.50;3.20;;;;;;;;;;4967617;29;20423;-83
2021/03/20 14:15:27;;;;;;;3.83;3.57;;;;;;;;;;4956397;29;20424;-84
2021/03/20 14:17:53;;;;;;;3.23;2.93;;;;;;;;;;4956507;29;20415;-83
2021/03/20 14:20:21;;;;;;;3.27;3.07;;;;;;;;;;4956137;29;20471;-84
2021/03/20 14:22:47;;;;;;;3.40;3.10;;;;;;;;;;4956584;29;20411;-84
2021/03/20 14:25:13;;;;;;;3.27;3.07;;;;;;;;;;4956113;29;20518;-82
2021/03/20 14:27:39;;;;;;;3.10;2.80;;;;;;;;;;4955733;29;20917;-84
2021/03/20 14:30:06;;;;;;;2.90;2.70;;;;;;;;;;4938613;29;20625;-84
2021/03/20 14:35:36;;;;;;;3.13;2.93;;;;;;;;;;4955561;29;20450;-83
2021/03/20 14:38:02;;;;;;;5.70;3.10;;;;;;;;;;4955334;29;20429;-83
2021/03/20 14:40:33;;;;;;;4.63;2.70;;;;;;;;;;4955479;29;20559;-84
2021/03/20 14:42:59;;;;;;;2.70;2.50;;;;;;;;;;4955417;29;20460;-84
2021/03/20 14:45:25;;;;;;;3.03;2.80;;;;;;;;;;4955564;29;20431;-82
2021/03/20 14:50:55;;;;;;;4.53;2.63;;;;;;;;;;4955052;29;20515;-84
2021/03/20 14:53:21;;;;;;;2.83;2.63;;;;;;;;;;4937705;29;20486;-83
2021/03/20 14:55:47;;;;;;;4.77;3.27;;;;;;;;;;4955248;29;20911;-84
2021/03/20 14:58:13;;;;;;;5.50;2.70;;;;;;;;;;4954915;29;20746;-82
2021/03/20 15:00:41;;;;;;;2.70;2.50;;;;;;;;;;4955027;29;20955;-84
2021/03/20 15:03:09;;;;;;;4.00;1.90;;;;;;;;;;4955106;29;20503;-83
2021/03/20 15:05:35;;;;;;;3.90;2.70;;;;;;;;;;4955512;29;20415;-85
2021/03/20 15:08:01;;;;;;;7.03;3.23;;;;;;;;;;4953987;28;20456;-85
2021/03/20 15:10:31;;;;;;;3.03;2.70;;;;;;;;;;4955185;29;20916;-87
2021/03/20 15:12:57;;;;;;;3.00;2.37;;;;;;;;;;4954824;29;20424;-84
2021/03/20 15:15:24;;;;;;;4.07;2.45;;;;;;;;;;4954829;29;20417;-88
2021/03/20 15:20:54;;;;;;;3.20;2.60;;;;;;;;;;4955585;29;20550;-82
2021/03/20 15:23:27;;;;;;;2.78;2.55;;;;;;;;;;4954678;29;20454;-85
2021/03/20 15:25:54;;;;;;;3.37;3.07;;;;;;;;;;4954399;29;20175;-84
2021/03/20 15:28:20;;;;;;;3.60;2.42;;;;;;;;;;4954786;29;20899;-81
2021/03/20 15:30:46;;;;;;;3.77;2.27;;;;;;;;;;4956425;29;20178;-82
2021/03/20 15:33:13;;;;;;;3.25;2.60;;;;;;;;;;4955202;29;20546;-84
2021/03/20 15:35:41;;;;;;;2.90;2.60;;;;;;;;;;4955231;29;20220;-81
2021/03/20 15:38:07;;;;;;;2.40;2.20;;;;;;;;;;4955372;29;20207;-83
2021/03/20 15:40:35;;;;;;;3.15;2.08;;;;;;;;;;4954662;29;20199;-80
2021/03/20 15:43:02;;;;;;;2.67;2.35;;;;;;;;;;4954233;29;20179;-77
2021/03/20 15:45:29;;;;;;;2.47;2.28;;;;;;;;;;4954548;29;20175;-77
2021/03/20 15:51:00;;;;;;;2.08;1.88;;;;;;;;;;4953681;29;20582;-78
2021/03/20 15:53:26;;;;;;;1.95;1.85;;;;;;;;;;4954058;29;20221;-77
2021/03/20 15:55:53;;;;;;;2.90;2.40;;;;;;;;;;4954233;29;20210;-78
2021/03/20 15:58:20;;;;;;;3.13;2.63;;;;;;;;;;4954432;29;20418;-79
2021/03/20 16:00:46;;;;;;;3.78;2.55;;;;;;;;;;4954686;29;20182;-80
2021/03/20 16:06:16;;;;;;;3.20;2.90;;;;;;;;;;4955050;29;20688;-79